Terminal Aerodrome Forecast
Issued by NWS Tallahassee, FL

Home | Current Version | Previous Version | Text Only | Print | Product List | Glossary On
Versions: 1 2 3 4 5 6 7 8 9 10 11 12 13 14 15 16
000
FTUS42 KTAE 302300
TAFTLH
TAF
KTLH 302331Z 3100/3124 18003KT P6SM SCT040 BKN250
      TEMPO 3110/3113 00000KT 3SM BR SCT002
     FM311600 13005KT P6SM SCT040
      TEMPO 3119/3123 3SM TSRA BKN030CB=

USA.gov is the U.S. government's official web portal to all federal, state and local government web resources and services.